Time;durP1;ratioP1;P1;durP2;ratioP2;P2;SDS_P1;SDS_P2;PMS_P1;PMS_P2;Temp;Humidity;BMP_temperature;BMP_pressure;BME280_temperature;BME280_humidity;BME280_pressure;Samples;Min_cycle;Max_cycle;Signal;HPM_P1;HPM_P2
2023/05/16 00:00:36;;;;;;;5.85;1.20;;;;;;;;;;5058458;28;20455;-72
2023/05/16 00:03:04;;;;;;;4.00;1.75;;;;;;;;;;5074543;28;20170;-71
2023/05/16 00:05:30;;;;;;;2.65;1.20;;;;;;;;;;5076894;28;20031;-71
2023/05/16 00:07:56;;;;;;;3.47;1.10;;;;;;;;;;5078963;28;20052;-72
2023/05/16 00:10:22;;;;;;;3.15;1.08;;;;;;;;;;5074481;28;20503;-72
2023/05/16 00:12:51;;;;;;;4.72;1.23;;;;;;;;;;5082355;28;20024;-71
2023/05/16 00:15:19;;;;;;;6.93;1.50;;;;;;;;;;5077171;28;20084;-72
2023/05/16 00:17:46;;;;;;;5.32;1.63;;;;;;;;;;5081997;28;20585;-72
2023/05/16 00:20:13;;;;;;;3.95;1.70;;;;;;;;;;5077262;28;20039;-73
2023/05/16 00:22:39;;;;;;;3.35;1.83;;;;;;;;;;5076297;28;20078;-71
2023/05/16 00:25:07;;;;;;;5.10;1.88;;;;;;;;;;5068323;28;20025;-72
2023/05/16 00:27:34;;;;;;;4.75;1.70;;;;;;;;;;5075486;28;20035;-71
2023/05/16 00:30:01;;;;;;;6.93;1.90;;;;;;;;;;5073825;28;20046;-71
2023/05/16 00:32:27;;;;;;;5.65;2.00;;;;;;;;;;5038781;28;20049;-72
2023/05/16 00:34:54;;;;;;;6.68;2.15;;;;;;;;;;5035454;28;20370;-72
2023/05/16 00:37:20;;;;;;;8.10;2.20;;;;;;;;;;5036044;28;20598;-72
2023/05/16 00:39:46;;;;;;;7.47;2.33;;;;;;;;;;5034253;28;20032;-71
2023/05/16 00:42:12;;;;;;;5.70;1.88;;;;;;;;;;5038212;28;20124;-72
2023/05/16 00:44:38;;;;;;;6.00;1.70;;;;;;;;;;5032734;28;20040;-72
2023/05/16 00:47:05;;;;;;;4.75;1.73;;;;;;;;;;5041371;28;20052;-72
2023/05/16 00:49:31;;;;;;;5.97;1.80;;;;;;;;;;5036757;28;20096;-72
2023/05/16 00:51:58;;;;;;;5.50;1.52;;;;;;;;;;5040056;28;20061;-72
2023/05/16 00:54:27;;;;;;;4.07;1.50;;;;;;;;;;5034288;28;20685;-72
2023/05/16 00:56:53;;;;;;;11.73;1.52;;;;;;;;;;5035048;28;20496;-72
2023/05/16 00:59:20;;;;;;;4.00;1.58;;;;;;;;;;5034973;28;20025;-72
2023/05/16 01:01:47;;;;;;;6.30;1.50;;;;;;;;;;5037953;28;20072;-71
2023/05/16 01:04:13;;;;;;;12.20;1.88;;;;;;;;;;5032621;28;20071;-72
2023/05/16 01:06:39;;;;;;;2.42;1.10;;;;;;;;;;5041710;28;20033;-72
2023/05/16 01:09:11;;;;;;;3.92;1.17;;;;;;;;;;5037865;28;20907;-72
2023/05/16 01:11:50;;;;;;;4.15;1.67;;;;;;;;;;5043283;28;20024;-72
2023/05/16 01:14:52;;;;;;;2.28;1.00;;;;;;;;;;5036020;28;20071;-71
2023/05/16 01:17:26;;;;;;;4.15;1.15;;;;;;;;;;5001895;28;20072;-71
2023/05/16 01:19:52;;;;;;;5.68;1.30;;;;;;;;;;5035148;28;20033;-71
2023/05/16 01:22:18;;;;;;;3.90;1.30;;;;;;;;;;5043887;28;20033;-71
2023/05/16 01:25:03;;;;;;;4.50;1.25;;;;;;;;;;5042206;28;20119;-70
2023/05/16 01:27:30;;;;;;;2.65;0.98;;;;;;;;;;5044392;28;20033;-70
2023/05/16 01:29:56;;;;;;;3.72;1.35;;;;;;;;;;5038378;28;20029;-70
2023/05/16 01:32:23;;;;;;;4.00;1.42;;;;;;;;;;5078354;28;20538;-71
2023/05/16 01:34:51;;;;;;;2.35;1.20;;;;;;;;;;5075000;28;20229;-71
2023/05/16 01:37:21;;;;;;;4.72;1.20;;;;;;;;;;5079272;28;20025;-70
2023/05/16 01:39:50;;;;;;;2.60;1.20;;;;;;;;;;5076938;28;20031;-71
2023/05/16 01:42:18;;;;;;;5.13;1.40;;;;;;;;;;5078295;28;20173;-71
2023/05/16 01:44:56;;;;;;;4.28;1.20;;;;;;;;;;5083697;28;20107;-72
2023/05/16 01:47:25;;;;;;;3.88;1.23;;;;;;;;;;5097062;28;20122;-71
2023/05/16 01:50:04;;;;;;;4.20;1.50;;;;;;;;;;5084955;28;20029;-71
2023/05/16 01:52:36;;;;;;;2.80;1.38;;;;;;;;;;5075039;28;20575;-71
2023/05/16 01:55:02;;;;;;;5.80;1.90;;;;;;;;;;5063085;28;20518;-72
2023/05/16 01:57:29;;;;;;;2.90;1.42;;;;;;;;;;5085272;28;20027;-74
2023/05/16 01:59:56;;;;;;;3.15;1.17;;;;;;;;;;5078921;28;20028;-71
2023/05/16 02:02:22;;;;;;;3.72;1.40;;;;;;;;;;5078711;28;20123;-71
2023/05/16 02:04:48;;;;;;;4.10;1.38;;;;;;;;;;5083254;28;20032;-72
2023/05/16 02:07:15;;;;;;;2.45;1.23;;;;;;;;;;5085309;28;20024;-71
2023/05/16 02:09:41;;;;;;;2.95;1.08;;;;;;;;;;5083833;28;20483;-71
2023/05/16 02:12:07;;;;;;;3.47;1.40;;;;;;;;;;5078807;28;20032;-71
2023/05/16 02:14:33;;;;;;;3.33;1.13;;;;;;;;;;5082792;28;20020;-71
2023/05/16 02:17:00;;;;;;;4.18;1.15;;;;;;;;;;5087223;28;20111;-70
2023/05/16 02:19:26;;;;;;;3.05;1.58;;;;;;;;;;5084673;28;20078;-72
2023/05/16 02:21:52;;;;;;;1.60;1.25;;;;;;;;;;5076060;28;20036;-71
2023/05/16 02:24:18;;;;;;;7.10;1.30;;;;;;;;;;5082349;28;20529;-72
2023/05/16 02:26:45;;;;;;;4.07;1.23;;;;;;;;;;5076806;28;20031;-70
2023/05/16 02:29:11;;;;;;;3.20;1.30;;;;;;;;;;5075915;28;20027;-71
2023/05/16 02:31:37;;;;;;;3.42;1.13;;;;;;;;;;5075013;28;20095;-71
2023/05/16 02:34:03;;;;;;;3.88;1.42;;;;;;;;;;5081999;28;20077;-71
2023/05/16 02:36:29;;;;;;;2.13;1.17;;;;;;;;;;5082671;28;20025;-71
2023/05/16 02:38:56;;;;;;;2.65;1.35;;;;;;;;;;5088116;28;20026;-73
2023/05/16 02:41:22;;;;;;;5.25;1.38;;;;;;;;;;5076938;28;20040;-71
2023/05/16 02:43:49;;;;;;;3.00;1.17;;;;;;;;;;5078894;28;20751;-71
2023/05/16 02:46:21;;;;;;;3.13;1.30;;;;;;;;;;5076381;28;20028;-74
2023/05/16 02:48:47;;;;;;;;;;;;;;;;;;5075096;28;20135;-73
2023/05/16 02:51:13;;;;;;;2.88;1.27;;;;;;;;;;5075154;28;19995;-72
2023/05/16 02:53:39;;;;;;;3.45;1.55;;;;;;;;;;5074691;28;20119;-73
2023/05/16 02:56:06;;;;;;;5.10;1.50;;;;;;;;;;5068951;28;20098;-72
2023/05/16 02:58:32;;;;;;;3.80;1.40;;;;;;;;;;5075739;28;20063;-72
2023/05/16 03:00:59;;;;;;;6.15;2.00;;;;;;;;;;5070704;28;20396;-72
2023/05/16 03:03:25;;;;;;;2.70;1.50;;;;;;;;;;5073580;28;20028;-72
2023/05/16 03:05:52;;;;;;;3.35;1.52;;;;;;;;;;5074932;28;20061;-74
2023/05/16 03:08:18;;;;;;;7.93;1.90;;;;;;;;;;5075846;28;20032;-72
2023/05/16 03:10:44;;;;;;;5.38;1.00;;;;;;;;;;5068999;28;20157;-72
2023/05/16 03:13:10;;;;;;;11.00;1.30;;;;;;;;;;5074778;28;20028;-72
2023/05/16 03:15:37;;;;;;;8.40;1.48;;;;;;;;;;5073794;28;20100;-72
2023/05/16 03:18:03;;;;;;;7.93;1.02;;;;;;;;;;5072136;28;20618;-72
2023/05/16 03:20:29;;;;;;;5.50;1.00;;;;;;;;;;5075180;28;20050;-72
2023/05/16 03:22:55;;;;;;;6.03;1.23;;;;;;;;;;5072167;28;20024;-71
2023/05/16 03:25:22;;;;;;;6.45;1.00;;;;;;;;;;5074380;28;20113;-74
2023/05/16 03:27:48;;;;;;;6.30;1.17;;;;;;;;;;5072491;28;20028;-72
2023/05/16 03:30:15;;;;;;;6.78;1.25;;;;;;;;;;5060173;28;20522;-73
2023/05/16 03:32:42;;;;;;;5.97;1.40;;;;;;;;;;5073574;28;20062;-73
2023/05/16 03:35:08;;;;;;;9.95;1.88;;;;;;;;;;5076933;28;20115;-74
2023/05/16 03:37:34;;;;;;;10.30;1.90;;;;;;;;;;5078800;28;20024;-73
2023/05/16 03:40:03;;;;;;;9.70;1.52;;;;;;;;;;5058405;28;20024;-72
2023/05/16 03:42:31;;;;;;;8.07;1.80;;;;;;;;;;5072848;28;20037;-73
2023/05/16 03:44:57;;;;;;;7.25;1.85;;;;;;;;;;5070988;28;20408;-74
2023/05/16 03:47:23;;;;;;;7.55;1.92;;;;;;;;;;5073858;28;20107;-73
2023/05/16 03:49:50;;;;;;;7.40;2.95;;;;;;;;;;5070911;28;20044;-73
2023/05/16 03:52:16;;;;;;;8.65;2.55;;;;;;;;;;5069434;28;20032;-72
2023/05/16 03:54:42;;;;;;;5.13;2.45;;;;;;;;;;5071475;28;20183;-73
2023/05/16 03:57:08;;;;;;;5.03;2.65;;;;;;;;;;5068181;28;20067;-73
2023/05/16 03:59:35;;;;;;;7.80;3.60;;;;;;;;;;5057912;28;20735;-72
2023/05/16 04:02:01;;;;;;;6.25;2.60;;;;;;;;;;5075604;28;20081;-72
2023/05/16 04:04:27;;;;;;;6.43;2.33;;;;;;;;;;5058350;28;20118;-73
2023/05/16 04:06:53;;;;;;;10.88;2.70;;;;;;;;;;5074916;28;20104;-72
2023/05/16 04:09:19;;;;;;;7.22;2.67;;;;;;;;;;5075014;28;20099;-73
2023/05/16 04:11:46;;;;;;;4.45;2.30;;;;;;;;;;5070819;28;20020;-72
2023/05/16 04:14:12;;;;;;;7.88;2.30;;;;;;;;;;5068089;28;20025;-72
2023/05/16 04:16:38;;;;;;;5.75;2.47;;;;;;;;;;5072125;28;20094;-73
2023/05/16 04:19:04;;;;;;;5.93;2.47;;;;;;;;;;5071492;28;20305;-73
2023/05/16 04:21:31;;;;;;;6.88;2.50;;;;;;;;;;5058206;28;20463;-73
2023/05/16 04:23:57;;;;;;;3.22;1.70;;;;;;;;;;5071963;28;20110;-72
2023/05/16 04:26:24;;;;;;;7.20;2.13;;;;;;;;;;5068149;28;20055;-74
2023/05/16 04:28:50;;;;;;;4.28;2.05;;;;;;;;;;5068244;28;20110;-72
2023/05/16 04:31:17;;;;;;;3.38;2.10;;;;;;;;;;5073188;28;20278;-73
2023/05/16 04:33:43;;;;;;;4.55;2.30;;;;;;;;;;5066845;28;20024;-73
2023/05/16 04:36:09;;;;;;;5.05;2.25;;;;;;;;;;5075528;28;20030;-73
2023/05/16 04:38:35;;;;;;;5.72;2.40;;;;;;;;;;5076238;28;20080;-73
2023/05/16 04:41:02;;;;;;;5.30;2.40;;;;;;;;;;5076196;28;20067;-73
2023/05/16 04:43:29;;;;;;;5.32;2.40;;;;;;;;;;5072444;28;20771;-72
2023/05/16 04:45:57;;;;;;;4.32;2.65;;;;;;;;;;5073500;28;20031;-72
2023/05/16 04:48:23;;;;;;;5.72;2.80;;;;;;;;;;5071747;28;20052;-73
2023/05/16 04:50:51;;;;;;;5.57;2.75;;;;;;;;;;5076435;28;20035;-73
2023/05/16 04:53:17;;;;;;;7.63;2.40;;;;;;;;;;5070754;28;20024;-73
2023/05/16 04:55:43;;;;;;;5.85;2.20;;;;;;;;;;5041401;28;20547;-73
2023/05/16 04:58:10;;;;;;;5.28;2.75;;;;;;;;;;5072350;28;20035;-73
2023/05/16 05:00:36;;;;;;;4.53;2.78;;;;;;;;;;5072918;28;20104;-74
2023/05/16 05:03:03;;;;;;;6.47;2.72;;;;;;;;;;5078762;28;20541;-73
2023/05/16 05:05:29;;;;;;;4.43;2.58;;;;;;;;;;5058785;28;20110;-73
2023/05/16 05:07:58;;;;;;;4.30;2.53;;;;;;;;;;5077357;28;20629;-74
2023/05/16 05:10:26;;;;;;;3.53;2.40;;;;;;;;;;5070622;28;20110;-73
2023/05/16 05:12:52;;;;;;;5.50;2.50;;;;;;;;;;5066356;28;20029;-73
2023/05/16 05:15:18;;;;;;;7.13;2.55;;;;;;;;;;5077546;28;20028;-73
2023/05/16 05:17:45;;;;;;;5.07;2.25;;;;;;;;;;5064665;28;20082;-71
2023/05/16 05:20:11;;;;;;;5.70;2.97;;;;;;;;;;5071551;28;20032;-72
2023/05/16 05:22:38;;;;;;;4.78;2.70;;;;;;;;;;5074655;28;20031;-72
2023/05/16 05:25:04;;;;;;;5.07;2.53;;;;;;;;;;5070019;28;20135;-72
2023/05/16 05:27:31;;;;;;;8.90;3.22;;;;;;;;;;5073439;28;20060;-73
2023/05/16 05:29:57;;;;;;;6.20;3.20;;;;;;;;;;5075187;28;20110;-72
2023/05/16 05:32:23;;;;;;;7.68;3.08;;;;;;;;;;5068941;28;20048;-72
2023/05/16 05:34:49;;;;;;;8.07;3.05;;;;;;;;;;5070416;28;20388;-73
2023/05/16 05:37:16;;;;;;;5.70;3.15;;;;;;;;;;5057915;28;20028;-73
2023/05/16 05:39:42;;;;;;;9.43;3.33;;;;;;;;;;5075324;28;20115;-73
2023/05/16 05:42:08;;;;;;;8.15;3.20;;;;;;;;;;5054480;28;20040;-72
2023/05/16 05:44:36;;;;;;;9.13;3.67;;;;;;;;;;5074131;28;20363;-73
2023/05/16 05:47:02;;;;;;;7.18;3.20;;;;;;;;;;5071119;28;20055;-73
2023/05/16 05:49:29;;;;;;;12.63;4.45;;;;;;;;;;5083891;28;20302;-73
2023/05/16 05:51:55;;;;;;;8.70;3.70;;;;;;;;;;5075326;28;20387;-73
2023/05/16 05:54:22;;;;;;;6.30;3.85;;;;;;;;;;5077848;28;20108;-73
2023/05/16 05:56:48;;;;;;;7.93;3.65;;;;;;;;;;5074204;28;20029;-73
2023/05/16 05:59:15;;;;;;;9.13;3.80;;;;;;;;;;5076574;28;20051;-72
2023/05/16 06:01:42;;;;;;;12.73;3.97;;;;;;;;;;5076094;28;20905;-73
2023/05/16 06:04:09;;;;;;;4.57;3.15;;;;;;;;;;5077150;28;20070;-71
2023/05/16 06:06:35;;;;;;;7.93;3.72;;;;;;;;;;5077965;28;20140;-73
2023/05/16 06:09:01;;;;;;;11.07;4.00;;;;;;;;;;5070787;28;20028;-72
2023/05/16 06:11:27;;;;;;;7.20;3.95;;;;;;;;;;5071749;28;20021;-73
2023/05/16 06:13:54;;;;;;;10.32;4.10;;;;;;;;;;5070356;28;20285;-73
2023/05/16 06:16:24;;;;;;;9.23;3.95;;;;;;;;;;5060353;28;20111;-72
2023/05/16 06:18:50;;;;;;;9.77;4.30;;;;;;;;;;5072563;28;20016;-73
2023/05/16 06:21:16;;;;;;;5.68;3.80;;;;;;;;;;5079342;28;20060;-72
2023/05/16 06:23:42;;;;;;;6.97;4.28;;;;;;;;;;5072274;28;20342;-72
2023/05/16 06:26:08;;;;;;;9.27;4.22;;;;;;;;;;5079326;28;20629;-72
2023/05/16 06:28:35;;;;;;;8.88;4.70;;;;;;;;;;5071998;28;20024;-72
2023/05/16 06:31:01;;;;;;;10.18;4.22;;;;;;;;;;5081561;28;20039;-74
2023/05/16 06:33:27;;;;;;;6.72;4.10;;;;;;;;;;5074297;28;20539;-74
2023/05/16 06:35:53;;;;;;;10.82;5.22;;;;;;;;;;5065566;28;20062;-74
2023/05/16 06:38:20;;;;;;;8.40;4.50;;;;;;;;;;5078216;28;20032;-75
2023/05/16 06:40:46;;;;;;;9.52;4.40;;;;;;;;;;5076422;28;20036;-73
2023/05/16 06:43:12;;;;;;;8.20;4.80;;;;;;;;;;5071129;28;20089;-73
2023/05/16 06:45:38;;;;;;;7.38;3.78;;;;;;;;;;5073802;28;20024;-72
2023/05/16 06:48:06;;;;;;;8.02;4.00;;;;;;;;;;5079657;28;20092;-72
2023/05/16 06:50:34;;;;;;;9.07;4.10;;;;;;;;;;5082256;28;20162;-71
2023/05/16 06:53:00;;;;;;;7.75;4.10;;;;;;;;;;5071947;28;20058;-71
2023/05/16 06:55:27;;;;;;;6.88;3.88;;;;;;;;;;5069214;28;20021;-71
2023/05/16 06:57:53;;;;;;;6.55;3.60;;;;;;;;;;5090186;28;20550;-75
2023/05/16 07:00:19;;;;;;;7.20;3.58;;;;;;;;;;5075450;28;20104;-73
2023/05/16 07:02:45;;;;;;;8.02;3.55;;;;;;;;;;5077075;28;20421;-74
2023/05/16 07:05:12;;;;;;;6.18;3.70;;;;;;;;;;5073016;28;20160;-74
2023/05/16 07:07:38;;;;;;;8.02;3.55;;;;;;;;;;5087516;28;20024;-74
2023/05/16 07:10:04;;;;;;;7.63;3.67;;;;;;;;;;5083949;28;20563;-74
2023/05/16 07:12:30;;;;;;;13.50;4.25;;;;;;;;;;5076509;28;20027;-71
2023/05/16 07:14:57;;;;;;;13.05;3.90;;;;;;;;;;5071358;28;20024;-72
2023/05/16 07:17:23;;;;;;;9.73;3.65;;;;;;;;;;5071486;28;20158;-71
2023/05/16 07:19:49;;;;;;;10.35;4.25;;;;;;;;;;5074162;28;20077;-72
2023/05/16 07:22:16;;;;;;;12.23;4.28;;;;;;;;;;5071829;28;20306;-74
2023/05/16 07:24:42;;;;;;;8.75;3.25;;;;;;;;;;5068636;28;20472;-74
2023/05/16 07:27:08;;;;;;;7.38;2.63;;;;;;;;;;5084246;28;20032;-74
2023/05/16 07:29:36;;;;;;;6.72;2.50;;;;;;;;;;5080158;28;20012;-73
2023/05/16 07:32:02;;;;;;;5.70;2.65;;;;;;;;;;5071398;28;20048;-74
2023/05/16 07:34:28;;;;;;;9.00;2.97;;;;;;;;;;5082308;28;20027;-73
2023/05/16 07:36:54;;;;;;;5.80;2.78;;;;;;;;;;5071724;28;20516;-72
2023/05/16 07:39:21;;;;;;;12.13;2.75;;;;;;;;;;5074576;28;20115;-74
2023/05/16 07:41:47;;;;;;;11.00;3.40;;;;;;;;;;5079408;28;20082;-71
2023/05/16 07:44:13;;;;;;;13.65;4.63;;;;;;;;;;5068516;28;20024;-72
2023/05/16 07:46:39;;;;;;;10.95;3.35;;;;;;;;;;5080135;28;20111;-73
2023/05/16 07:49:05;;;;;;;6.63;2.13;;;;;;;;;;5088622;28;20016;-72
2023/05/16 07:51:32;;;;;;;8.13;1.77;;;;;;;;;;5077693;28;20103;-75
2023/05/16 07:53:58;;;;;;;6.03;1.73;;;;;;;;;;5077543;28;20084;-74
2023/05/16 07:56:24;;;;;;;5.25;1.92;;;;;;;;;;5078250;28;20031;-75
2023/05/16 07:58:50;;;;;;;4.88;1.35;;;;;;;;;;5079990;28;20040;-74
2023/05/16 08:01:16;;;;;;;2.63;1.00;;;;;;;;;;5072022;28;20108;-74
2023/05/16 08:03:43;;;;;;;2.03;1.20;;;;;;;;;;5080325;28;20063;-73
2023/05/16 08:06:09;;;;;;;2.05;1.20;;;;;;;;;;5077118;28;20090;-74
2023/05/16 08:08:36;;;;;;;2.67;1.02;;;;;;;;;;5073739;28;20021;-71
2023/05/16 08:11:02;;;;;;;2.45;1.00;;;;;;;;;;5071043;28;20024;-72
2023/05/16 08:13:28;;;;;;;1.15;0.75;;;;;;;;;;5074909;28;20337;-71
2023/05/16 08:15:54;;;;;;;1.77;0.88;;;;;;;;;;5078226;28;20394;-73
2023/05/16 08:18:21;;;;;;;0.88;0.70;;;;;;;;;;5075759;28;20152;-74
2023/05/16 08:20:47;;;;;;;1.63;0.90;;;;;;;;;;5071218;28;20032;-73
2023/05/16 08:23:13;;;;;;;1.90;1.00;;;;;;;;;;5076728;28;20028;-75
2023/05/16 08:25:40;;;;;;;0.85;0.85;;;;;;;;;;5085665;28;20555;-73
2023/05/16 08:28:06;;;;;;;1.08;0.85;;;;;;;;;;5077862;28;20035;-74
2023/05/16 08:30:32;;;;;;;2.15;0.90;;;;;;;;;;5071284;28;20123;-74
2023/05/16 08:32:58;;;;;;;1.70;0.98;;;;;;;;;;5072231;28;20112;-73
2023/05/16 08:35:25;;;;;;;1.60;0.80;;;;;;;;;;5074758;28;20016;-75
2023/05/16 08:37:51;;;;;;;1.55;0.95;;;;;;;;;;5079154;28;20063;-75
2023/05/16 08:40:18;;;;;;;1.50;1.20;;;;;;;;;;5079006;28;20109;-74
2023/05/16 08:42:44;;;;;;;2.58;1.30;;;;;;;;;;5072233;28;20480;-75
2023/05/16 08:45:11;;;;;;;3.95;1.50;;;;;;;;;;5076561;28;20097;-74
2023/05/16 08:47:40;;;;;;;2.72;1.30;;;;;;;;;;5080976;28;20032;-71
2023/05/16 08:50:08;;;;;;;4.13;1.27;;;;;;;;;;5076228;28;20436;-74
2023/05/16 08:52:37;;;;;;;3.30;1.48;;;;;;;;;;5081490;28;20023;-73
2023/05/16 08:55:04;;;;;;;4.20;1.60;;;;;;;;;;5078315;28;20036;-74
2023/05/16 08:57:32;;;;;;;3.58;1.88;;;;;;;;;;5074645;28;20023;-75
2023/05/16 08:59:59;;;;;;;3.63;1.73;;;;;;;;;;5074123;28;20032;-74
2023/05/16 09:02:26;;;;;;;7.38;2.05;;;;;;;;;;5077737;28;20036;-73
2023/05/16 09:04:54;;;;;;;5.00;2.08;;;;;;;;;;5069952;28;20060;-74
2023/05/16 09:07:20;;;;;;;5.70;2.22;;;;;;;;;;5076369;28;20471;-74
2023/05/16 09:09:46;;;;;;;4.78;2.08;;;;;;;;;;5077626;28;20020;-74
2023/05/16 09:12:12;;;;;;;5.15;2.35;;;;;;;;;;5056380;28;20050;-74
2023/05/16 09:14:39;;;;;;;4.10;2.05;;;;;;;;;;5076995;28;20135;-75
2023/05/16 09:17:06;;;;;;;3.88;2.13;;;;;;;;;;5074254;28;20024;-74
2023/05/16 09:19:37;;;;;;;4.10;2.20;;;;;;;;;;5068403;28;20051;-74
2023/05/16 09:22:03;;;;;;;9.60;2.92;;;;;;;;;;5078863;28;20043;-75
2023/05/16 09:24:29;;;;;;;6.13;2.60;;;;;;;;;;5071996;28;20107;-75
2023/05/16 09:26:56;;;;;;;5.03;2.78;;;;;;;;;;5057100;28;20028;-74
2023/05/16 09:29:22;;;;;;;5.80;3.13;;;;;;;;;;5074978;28;20365;-76
2023/05/16 09:31:49;;;;;;;7.70;2.60;;;;;;;;;;5072761;28;20051;-75
2023/05/16 09:34:15;;;;;;;6.30;2.80;;;;;;;;;;5073393;28;20059;-75
2023/05/16 09:36:41;;;;;;;6.97;3.03;;;;;;;;;;5075557;28;20605;-74
2023/05/16 09:39:07;;;;;;;6.32;2.70;;;;;;;;;;5073363;28;20052;-74
2023/05/16 09:41:34;;;;;;;8.45;2.90;;;;;;;;;;5065696;28;20433;-75
2023/05/16 09:44:04;;;;;;;7.53;3.33;;;;;;;;;;5071538;28;20640;-75
2023/05/16 09:46:31;;;;;;;9.95;3.08;;;;;;;;;;5076922;28;20028;-74
2023/05/16 09:48:57;;;;;;;3.83;2.65;;;;;;;;;;5074299;28;20573;-75
2023/05/16 09:51:23;;;;;;;10.80;3.00;;;;;;;;;;5071461;28;20020;-73
2023/05/16 09:53:49;;;;;;;6.25;2.85;;;;;;;;;;5079704;28;20024;-74
2023/05/16 09:56:16;;;;;;;6.05;2.95;;;;;;;;;;5074233;28;20027;-75
2023/05/16 09:58:42;;;;;;;7.60;3.03;;;;;;;;;;5074452;28;20282;-73
2023/05/16 10:01:09;;;;;;;8.77;2.97;;;;;;;;;;5074877;28;20032;-75
2023/05/16 10:03:37;;;;;;;7.00;3.00;;;;;;;;;;5075420;28;20077;-74
2023/05/16 10:06:04;;;;;;;8.55;3.28;;;;;;;;;;5073983;28;20032;-74
2023/05/16 10:08:35;;;;;;;6.88;3.13;;;;;;;;;;5075971;28;20111;-74
2023/05/16 10:11:01;;;;;;;9.43;3.33;;;;;;;;;;5071876;28;20036;-74
2023/05/16 10:13:31;;;;;;;7.53;3.00;;;;;;;;;;5080084;28;20107;-73
2023/05/16 10:15:58;;;;;;;6.85;3.10;;;;;;;;;;5080118;28;20020;-75
2023/05/16 10:18:35;;;;;;;9.55;3.13;;;;;;;;;;5056466;28;20053;-73
2023/05/16 10:21:06;;;;;;;10.27;2.92;;;;;;;;;;5060427;28;20032;-73
2023/05/16 10:23:33;;;;;;;7.93;2.92;;;;;;;;;;5077711;28;20024;-75
2023/05/16 10:26:02;;;;;;;12.68;4.25;;;;;;;;;;5070659;28;20488;-75
2023/05/16 10:28:29;;;;;;;11.10;3.22;;;;;;;;;;5071531;28;20086;-74
2023/05/16 10:30:55;;;;;;;12.43;3.92;;;;;;;;;;5077384;28;20131;-72
2023/05/16 10:33:21;;;;;;;10.23;3.95;;;;;;;;;;5079015;28;20047;-74
2023/05/16 10:35:48;;;;;;;10.75;3.53;;;;;;;;;;5087789;28;20020;-75
2023/05/16 10:38:16;;;;;;;14.75;4.30;;;;;;;;;;5076719;28;20016;-74
2023/05/16 10:40:42;;;;;;;11.80;3.78;;;;;;;;;;5073040;28;20017;-74
2023/05/16 10:43:09;;;;;;;10.00;3.72;;;;;;;;;;5076550;28;20093;-74
2023/05/16 10:45:44;;;;;;;12.63;3.72;;;;;;;;;;5060328;28;20408;-73
2023/05/16 10:48:12;;;;;;;15.43;4.05;;;;;;;;;;5067870;28;20468;-74
2023/05/16 10:50:38;;;;;;;11.00;4.00;;;;;;;;;;5071849;28;20082;-73
2023/05/16 10:53:14;;;;;;;10.13;4.53;;;;;;;;;;5062036;28;20016;-72
2023/05/16 10:55:44;;;;;;;12.32;3.75;;;;;;;;;;5080617;28;20500;-75
2023/05/16 10:58:10;;;;;;;16.85;4.60;;;;;;;;;;5077018;28;20017;-75
2023/05/16 11:00:39;;;;;;;6.35;3.85;;;;;;;;;;5075959;28;20059;-74
2023/05/16 11:03:05;;;;;;;8.75;3.58;;;;;;;;;;5071601;28;20029;-74
2023/05/16 11:05:31;;;;;;;15.07;4.95;;;;;;;;;;5077228;28;20020;-73
2023/05/16 11:08:07;;;;;;;8.15;4.00;;;;;;;;;;5084068;28;20111;-71
2023/05/16 11:10:33;;;;;;;30.20;5.97;;;;;;;;;;5069888;28;20017;-72
2023/05/16 11:13:07;;;;;;;14.88;4.72;;;;;;;;;;5081088;28;20077;-74
2023/05/16 11:15:33;;;;;;;10.48;4.53;;;;;;;;;;5083924;28;20471;-74
2023/05/16 11:18:06;;;;;;;15.00;5.80;;;;;;;;;;5080750;28;20071;-73
2023/05/16 11:20:34;;;;;;;10.93;4.78;;;;;;;;;;5084674;28;20089;-73
2023/05/16 11:23:15;;;;;;;9.55;4.63;;;;;;;;;;5065955;28;20059;-73
2023/05/16 11:25:44;;;;;;;12.90;5.30;;;;;;;;;;5085742;28;20103;-73
2023/05/16 11:28:12;;;;;;;16.52;5.68;;;;;;;;;;5075520;28;20024;-74
2023/05/16 11:30:43;;;;;;;16.40;6.20;;;;;;;;;;5083068;28;20040;-74
2023/05/16 11:33:09;;;;;;;9.97;5.83;;;;;;;;;;5075530;28;20840;-75
2023/05/16 11:35:36;;;;;;;18.67;6.63;;;;;;;;;;5076872;28;20036;-75
2023/05/16 11:38:02;;;;;;;35.20;8.30;;;;;;;;;;5076593;28;20028;-75
2023/05/16 11:40:28;;;;;;;23.75;6.90;;;;;;;;;;5078908;28;20121;-74
2023/05/16 11:42:54;;;;;;;24.92;7.18;;;;;;;;;;5077628;28;20044;-75
2023/05/16 11:45:24;;;;;;;15.55;6.53;;;;;;;;;;5073209;28;20047;-74
2023/05/16 11:47:50;;;;;;;14.63;6.63;;;;;;;;;;5078725;28;20503;-74
2023/05/16 11:50:17;;;;;;;19.45;6.32;;;;;;;;;;5078132;28;20100;-74
2023/05/16 11:52:44;;;;;;;24.08;7.78;;;;;;;;;;5072063;28;20020;-74
2023/05/16 11:55:11;;;;;;;11.48;5.63;;;;;;;;;;5072134;28;20097;-73
2023/05/16 11:57:38;;;;;;;21.88;7.32;;;;;;;;;;5076558;28;20118;-74
2023/05/16 12:00:18;;;;;;;18.20;6.78;;;;;;;;;;5082211;28;20124;-73
2023/05/16 12:02:46;;;;;;;20.90;6.55;;;;;;;;;;5077552;28;20032;-73
2023/05/16 12:05:13;;;;;;;20.50;8.07;;;;;;;;;;5076604;28;20035;-73
2023/05/16 12:07:39;;;;;;;25.05;9.02;;;;;;;;;;5085309;28;20058;-73
2023/05/16 12:10:09;;;;;;;22.10;8.00;;;;;;;;;;5063372;28;20081;-73
2023/05/16 12:12:36;;;;;;;23.05;7.15;;;;;;;;;;5086756;28;20353;-73
2023/05/16 12:15:03;;;;;;;21.48;7.43;;;;;;;;;;5079658;28;20028;-74
2023/05/16 12:17:29;;;;;;;24.33;7.85;;;;;;;;;;5078900;28;20028;-74
2023/05/16 12:19:56;;;;;;;16.52;6.25;;;;;;;;;;5070393;28;20136;-73
2023/05/16 12:22:24;;;;;;;20.60;7.15;;;;;;;;;;5077450;28;20055;-72
2023/05/16 12:24:51;;;;;;;18.17;7.20;;;;;;;;;;5073199;28;20031;-72
2023/05/16 12:27:27;;;;;;;18.25;6.25;;;;;;;;;;5073678;28;20048;-72
2023/05/16 12:29:53;;;;;;;16.38;6.43;;;;;;;;;;5071543;28;20039;-72
2023/05/16 12:32:19;;;;;;;15.60;6.30;;;;;;;;;;5083655;28;20048;-72
2023/05/16 12:34:55;;;;;;;20.10;6.45;;;;;;;;;;5074661;28;20024;-72
2023/05/16 12:37:22;;;;;;;21.60;7.22;;;;;;;;;;5076761;28;20039;-72
2023/05/16 12:39:48;;;;;;;14.88;5.80;;;;;;;;;;5052620;28;20023;-72
2023/05/16 12:42:14;;;;;;;23.50;7.10;;;;;;;;;;5079826;28;20188;-73
2023/05/16 12:44:45;;;;;;;16.77;6.63;;;;;;;;;;5072309;28;20069;-73
2023/05/16 12:47:12;;;;;;;21.37;7.37;;;;;;;;;;5060506;28;20031;-72
2023/05/16 12:49:45;;;;;;;17.95;8.02;;;;;;;;;;5079045;28;20077;-72
2023/05/16 12:52:17;;;;;;;17.20;6.47;;;;;;;;;;5071253;28;20060;-73
2023/05/16 12:54:44;;;;;;;17.13;7.38;;;;;;;;;;5085889;28;20023;-74
2023/05/16 12:57:10;;;;;;;14.75;6.13;;;;;;;;;;5069599;28;20112;-74
2023/05/16 12:59:37;;;;;;;17.75;7.05;;;;;;;;;;5076464;28;20396;-74
2023/05/16 13:02:03;;;;;;;26.55;7.93;;;;;;;;;;5076474;28;20071;-73
2023/05/16 13:04:30;;;;;;;13.50;6.78;;;;;;;;;;5076236;28;20107;-73
2023/05/16 13:06:57;;;;;;;19.50;7.72;;;;;;;;;;5078761;28;20667;-74
2023/05/16 13:09:23;;;;;;;23.95;7.65;;;;;;;;;;5078192;28;20484;-74
2023/05/16 13:11:50;;;;;;;19.45;6.97;;;;;;;;;;5073115;28;20047;-74
2023/05/16 13:14:16;;;;;;;22.52;6.85;;;;;;;;;;5076142;28;20056;-74
2023/05/16 13:16:43;;;;;;;17.15;7.32;;;;;;;;;;5080719;28;20033;-74
2023/05/16 13:19:10;;;;;;;57.50;17.17;;;;;;;;;;5077113;28;20114;-74
2023/05/16 13:21:39;;;;;;;26.77;9.32;;;;;;;;;;5072201;28;20117;-74
2023/05/16 13:24:06;;;;;;;36.90;12.75;;;;;;;;;;5079748;28;20028;-74
2023/05/16 13:26:32;;;;;;;23.75;8.32;;;;;;;;;;5076547;28;20120;-74
2023/05/16 13:29:00;;;;;;;19.65;7.28;;;;;;;;;;5064684;28;20060;-74
2023/05/16 13:31:27;;;;;;;19.98;7.28;;;;;;;;;;5065043;28;20044;-74
2023/05/16 13:33:53;;;;;;;28.67;7.78;;;;;;;;;;5072676;28;20039;-73
2023/05/16 13:36:19;;;;;;;41.28;12.52;;;;;;;;;;5077823;28;20042;-74
2023/05/16 13:38:46;;;;;;;34.70;10.13;;;;;;;;;;5074624;28;20119;-73
2023/05/16 13:41:12;;;;;;;33.58;13.23;;;;;;;;;;5078068;28;20119;-74
2023/05/16 13:43:39;;;;;;;27.00;9.60;;;;;;;;;;5074795;28;20621;-74
2023/05/16 13:46:05;;;;;;;20.30;8.68;;;;;;;;;;5084455;28;20813;-73
2023/05/16 13:48:31;;;;;;;30.67;9.25;;;;;;;;;;5072833;28;20099;-73
2023/05/16 13:50:58;;;;;;;26.00;8.93;;;;;;;;;;5079287;28;20055;-73
2023/05/16 13:53:25;;;;;;;26.55;9.95;;;;;;;;;;5073597;28;20031;-73
2023/05/16 13:55:51;;;;;;;30.73;9.68;;;;;;;;;;5074703;28;20047;-74
2023/05/16 13:58:17;;;;;;;52.00;15.27;;;;;;;;;;5074810;28;20218;-74
2023/05/16 14:00:44;;;;;;;32.15;11.55;;;;;;;;;;5071682;28;20024;-74
2023/05/16 14:03:10;;;;;;;27.08;9.68;;;;;;;;;;5077643;28;20112;-74
2023/05/16 14:05:36;;;;;;;28.48;11.13;;;;;;;;;;5068993;28;20745;-74
2023/05/16 14:08:02;;;;;;;35.05;9.65;;;;;;;;;;5075714;28;20165;-75
2023/05/16 14:10:30;;;;;;;27.33;8.52;;;;;;;;;;5055370;28;20028;-75
2023/05/16 14:12:56;;;;;;;45.17;12.25;;;;;;;;;;5077301;28;20028;-75
2023/05/16 14:15:23;;;;;;;37.17;10.27;;;;;;;;;;5063444;28;20114;-74
2023/05/16 14:17:49;;;;;;;55.35;20.40;;;;;;;;;;5057601;28;20019;-74
2023/05/16 14:20:15;;;;;;;23.55;9.45;;;;;;;;;;5079901;28;20104;-74
2023/05/16 14:22:41;;;;;;;30.95;10.90;;;;;;;;;;5076713;28;20035;-74
2023/05/16 14:25:07;;;;;;;27.17;9.63;;;;;;;;;;5069744;28;20012;-74
2023/05/16 14:27:34;;;;;;;27.88;9.38;;;;;;;;;;5075556;28;20032;-74
2023/05/16 14:30:00;;;;;;;26.95;9.63;;;;;;;;;;5062056;28;20302;-73
2023/05/16 14:32:27;;;;;;;23.15;8.98;;;;;;;;;;5074280;28;20078;-73
2023/05/16 14:34:53;;;;;;;28.98;8.98;;;;;;;;;;5075938;28;20020;-73
2023/05/16 14:37:19;;;;;;;21.85;8.25;;;;;;;;;;5084124;28;20149;-74